Latest Weather Observations for Perth

IDW60801

Issued at 2:35 pm WST Tuesday 2 September 2014 (issued every 30 minutes, with the page automatically refreshed every 10 minutes)

About weather observations | Map of weather stations | Latest weather observations for WA | Other Formats
Station Details ID: 009225 Name: PERTH METRO Lat: -31.92 Lon: 115.87 Height: 24.9 m
Data from the previous 72 hours. | See also: Recent months at Perth
Date/Time
WST
Temp
°C
App
Temp
°C
Dew
Point
Rel
Hum
%
Delta-T
°C
Wind Press
QNH
hPa
Press
MSL
hPa
Rain
since 9 am
mm
Dir
 
Spd
km/h
Gust
km/h
Spd
kts
Gust
kts
02/02:30pm 20.1 18.7 12.3 61 4.4 W 11 17 6 9 1015.9 1015.8 0.0
02/02:00pm 21.1 20.2 11.4 54 5.4 NNW 7 13 4 7 1015.3 1015.2 0.0
02/01:30pm 20.5 19.7 11.7 57 4.9 NNE 7 9 4 5 1015.0 1014.9 0.0
02/01:00pm 20.2 19.1 11.9 59 4.6 NE 9 13 5 7 1014.8 1014.7 0.0
02/12:30pm 19.8 19.0 11.6 59 4.5 E 7 13 4 7 1015.1 1015.0 0.0
02/12:00pm 19.0 18.5 10.8 59 4.4 E 4 9 2 5 1015.5 1015.4 0.0
02/11:30am 18.1 17.5 11.7 66 3.5 E 6 9 3 5 1015.9 1015.8 0.0
02/11:00am 17.1 17.2 11.6 70 3.0 E 2 7 1 4 1016.2 1016.1 0.0
02/10:30am 16.8 16.1 10.2 65 3.5 E 4 7 2 4 1017.0 1016.9 0.0
02/10:00am 16.5 15.4 10.1 66 3.4 E 6 9 3 5 1017.0 1016.9 0.0
02/09:30am 16.5 16.2 8.7 60 4.0 CALM 0 6 0 3 1017.3 1017.2 0.0
02/09:00am 16.1 14.9 9.5 65 3.4 E 6 7 3 4 1016.6 1016.5 0.0
02/08:30am 14.8 13.4 9.0 68 3.0 E 6 9 3 5 1016.8 1016.7 0.0
02/08:00am 14.1 12.4 8.3 68 2.9 E 7 9 4 5 1016.0 1015.9 0.0
02/07:30am 13.6 12.0 8.2 70 2.7 ENE 6 11 3 6 1016.4 1016.3 0.0
02/07:00am 13.1 12.0 8.4 73 2.3 N 4 9 2 5 1016.8 1016.7 0.0
02/06:30am 13.0 11.4 8.1 72 2.4 E 6 9 3 5 1016.7 1016.6 0.0
02/06:00am 12.7 11.9 8.0 73 2.3 E 2 6 1 3 1016.9 1016.8 0.0
02/05:30am 13.1 11.8 7.8 70 2.6 E 4 7 2 4 1016.9 1016.8 0.0
02/05:00am 13.5 11.8 7.7 68 2.9 E 6 9 3 5 1016.5 1016.4 0.0
02/04:30am 13.7 12.0 7.7 67 3.0 E 6 11 3 6 1016.6 1016.5 0.0
02/04:00am 13.9 12.0 7.4 65 3.2 E 7 15 4 8 1016.4 1016.3 0.0
02/03:30am 14.1 12.1 7.2 63 3.4 E 7 13 4 7 1016.6 1016.5 0.0
02/03:00am 14.2 12.2 7.3 63 3.4 E 7 13 4 7 1016.8 1016.7 0.0
02/02:30am 14.0 12.1 7.5 65 3.2 ESE 7 13 4 7 1016.9 1016.8 0.0
02/02:00am 14.0 12.2 7.3 64 3.3 SSE 6 9 3 5 1017.6 1017.5 0.0
02/01:30am 13.7 12.0 7.5 66 3.0 E 6 9 3 5 1017.7 1017.6 0.0
02/01:00am 13.5 12.1 7.3 66 3.0 E 4 7 2 4 1018.1 1018.0 0.0
02/12:30am 13.7 12.7 7.2 65 3.2 E 2 6 1 3 1018.4 1018.3 0.0
02/12:00am 13.9 12.1 7.0 63 3.3 E 6 11 3 6 1018.5 1018.4 0.0
 
Date/Time
WST
Temp
°C
App
Temp
°C
Dew
Point
Rel
Hum
%
Delta-T
°C
Wind Press
QNH
hPa
Press
MSL
hPa
Rain
since 9 am
mm
Dir
 
Spd
km/h
Gust
km/h
Spd
kts
Gust
kts
01/11:30pm 13.8 13.1 6.9 63 3.3 CALM 0 0 0 0 1019.0 1018.9 0.0
01/11:00pm 14.4 12.4 6.3 58 3.9 E 6 11 3 6 1019.2 1019.1 0.0
01/10:30pm 14.5 12.4 6.6 59 3.8 E 7 19 4 10 1019.6 1019.6 0.0
01/10:00pm 14.0 12.6 7.1 63 3.4 E 4 11 2 6 1020.1 1020.1 0.0
01/09:30pm 12.8 12.3 7.9 72 2.4 CALM 0 4 0 2 1019.8 1019.8 0.0
01/09:00pm 13.0 12.6 8.1 72 2.4 CALM 0 6 0 3 1020.5 1020.5 0.0
01/08:30pm 13.5 13.1 8.4 71 2.5 CALM 0 0 0 0 1020.2 1020.2 0.0
01/08:00pm 14.1 13.1 7.4 64 3.3 E 2 7 1 4 1020.4 1020.4 0.0
01/07:30pm 14.7 12.9 7.3 61 3.6 E 6 9 3 5 1020.5 1020.5 0.0
01/07:00pm 15.2 13.9 7.7 61 3.7 E 4 9 2 5 1020.4 1020.4 0.0
01/06:30pm 15.4 13.7 7.7 60 3.8 E 6 11 3 6 1020.5 1020.5 0.0
01/06:00pm 16.0 14.1 7.5 57 4.2 E 7 11 4 6 1020.8 1020.8 0.0
01/05:30pm 16.6 14.6 7.3 54 4.6 E 7 15 4 8 1020.6 1020.6 0.0
01/05:00pm 17.1 14.7 7.2 52 4.9 ENE 9 13 5 7 1020.2 1020.2 0.0
01/04:30pm 17.6 15.3 7.6 52 5.1 E 9 17 5 9 1020.2 1020.2 0.0
01/04:00pm 18.0 15.0 7.7 51 5.2 ENE 13 20 7 11 1019.9 1019.9 0.0
01/03:30pm 17.8 14.9 8.1 53 5.0 NE 13 22 7 12 1020.3 1020.3 0.0
01/03:00pm 18.1 15.0 7.2 49 5.5 NNE 13 24 7 13 1020.6 1020.6 0.0
01/02:30pm 18.1 15.4 7.5 50 5.4 NE 11 19 6 10 1020.5 1020.5 0.0
01/02:00pm 17.7 14.1 6.9 49 5.4 ENE 15 24 8 13 1020.7 1020.7 0.0
01/01:30pm 18.0 15.3 7.4 50 5.3 E 11 22 6 12 1020.8 1020.8 0.0
01/01:00pm 16.9 13.3 6.7 51 5.0 ENE 15 28 8 15 1021.4 1021.4 0.0
01/12:30pm 16.7 13.0 6.2 50 5.1 NE 15 24 8 13 1021.6 1021.6 0.0
01/12:00pm 16.6 12.9 6.4 51 5.0 NE 15 24 8 13 1022.8 1022.8 0.0
01/11:30am 16.5 12.7 7.4 55 4.5 NE 17 30 9 16 1023.2 1023.2 0.0
01/11:00am 15.6 12.3 6.3 54 4.5 ENE 13 22 7 12 1023.4 1023.4 0.0
01/10:30am 15.1 11.0 6.4 56 4.2 ENE 17 24 9 13 1023.4 1023.4 0.0
01/10:00am 15.0 11.0 6.8 58 4.0 NE 17 28 9 15 1023.7 1023.7 0.0
01/09:30am 14.5 11.7 6.8 60 3.7 E 11 19 6 10 1023.8 1023.8 0.0
01/09:00am 13.4 10.6 7.0 65 3.1 E 11 22 6 12 1023.7 1023.7 0.0
01/08:30am 12.6 10.6 7.3 70 2.6 E 7 13 4 7 1023.8 1023.8 0.0
01/08:00am 11.4 9.5 6.7 73 2.2 E 6 11 3 6 1023.7 1023.7 0.0
01/07:30am 9.7 8.2 6.6 81 1.4 NE 4 11 2 6 1023.9 1023.9 0.0
01/07:00am 8.6 6.4 6.1 84 1.1 E 7 11 4 6 1023.6 1023.6 0.0
01/06:30am 8.9 6.7 6.0 82 1.3 E 7 15 4 8 1023.4 1023.4 0.0
01/06:00am 9.2 7.0 6.1 81 1.4 ENE 7 11 4 6 1022.8 1022.8 0.0
01/05:30am 9.5 7.3 6.2 80 1.5 ENE 7 15 4 8 1022.2 1022.2 0.0
01/05:00am 9.1 7.1 6.2 82 1.3 E 6 13 3 7 1021.8 1021.8 0.0
01/04:30am 8.9 6.8 6.5 85 1.1 ESE 7 13 4 7 1022.1 1022.1 0.0
01/04:00am 7.2 5.2 6.3 94 0.4 S 6 7 3 4 1021.8 1021.8 0.0
01/03:30am 7.4 6.6 6.5 94 0.4 CALM 0 0 0 0 1022.0 1022.0 0.0
01/03:00am 7.7 6.9 6.5 92 0.5 CALM 0 0 0 0 1021.9 1021.9 0.0
01/02:30am 8.1 7.3 6.4 89 0.8 CALM 0 0 0 0 1021.9 1021.9 0.0
01/02:00am 8.5 6.7 7.0 90 0.7 S 6 7 3 4 1022.0 1022.0 0.0
01/01:30am 8.3 7.6 6.9 91 0.7 CALM 0 0 0 0 1021.9 1021.9 0.0
01/01:00am 8.7 8.1 7.3 91 0.7 CALM 0 0 0 0 1021.9 1021.9 0.0
01/12:30am 8.7 8.1 7.3 91 0.7 CALM 0 0 0 0 1021.7 1021.7 0.0
01/12:00am 8.9 8.3 7.4 90 0.7 CALM 0 0 0 0 1021.8 1021.8 0.0
 
Date/Time
WST
Temp
°C
App
Temp
°C
Dew
Point
Rel
Hum
%
Delta-T
°C
Wind Press
QNH
hPa
Press
MSL
hPa
Rain
since 9 am
mm
Dir
 
Spd
km/h
Gust
km/h
Spd
kts
Gust
kts
31/11:30pm 9.2 8.5 7.0 86 1.0 CALM 0 0 0 0 1022.1 1022.1 0.0
31/11:00pm 9.8 9.1 6.9 82 1.4 CALM 0 0 0 0 1022.3 1022.3 0.0
31/10:30pm 10.4 9.6 6.7 78 1.7 CALM 0 0 0 0 1022.4 1022.4 0.0
31/10:00pm 11.8 9.7 6.5 70 2.5 S 7 9 4 5 1022.5 1022.5 0.0
31/09:30pm 12.5 10.3 6.3 66 2.9 S 7 9 4 5 1022.4 1022.4 0.0
31/09:00pm 13.0 10.4 5.9 62 3.3 S 9 15 5 8 1022.2 1022.2 0.0
31/08:30pm 13.5 10.8 5.7 59 3.7 S 9 17 5 9 1021.9 1021.9 0.0
31/08:00pm 13.9 10.7 5.3 56 4.0 S 11 17 6 9 1021.4 1021.4 0.0
31/07:30pm 14.3 11.1 5.1 54 4.3 S 11 17 6 9 1021.1 1021.1 0.0
31/07:00pm 14.5 11.5 5.8 56 4.1 SSW 11 17 6 9 1021.0 1021.0 0.0
31/06:30pm 14.9 11.6 6.2 56 4.2 S 13 20 7 11 1020.8 1020.8 0.0
31/06:00pm 15.1 12.0 7.2 59 3.9 SSW 13 20 7 11 1020.4 1020.4 0.0
31/05:30pm 15.4 12.4 7.9 61 3.8 SSW 13 22 7 12 1020.1 1020.1 0.0
31/05:00pm 16.0 12.7 8.0 59 4.0 SW 15 24 8 13 1020.2 1020.2 0.0
31/04:30pm 16.4 13.1 7.9 57 4.3 SW 15 26 8 14 1019.8 1019.8 0.0
31/04:00pm 17.4 14.5 8.0 54 4.8 SW 13 19 7 10 1019.4 1019.4 0.0
31/03:30pm 17.4 15.0 6.9 50 5.2 SSW 9 15 5 8 1018.9 1018.9 0.0
31/03:00pm 17.3 15.1 7.9 54 4.8 S 9 15 5 8 1019.0 1019.0 0.0
31/02:30pm 17.4 14.9 8.0 54 4.8 SSW 11 17 6 9 1019.0 1019.0 0.0
31/02:00pm 17.3 14.9 7.1 51 5.1 SSE 9 15 5 8 1019.0 1019.0 0.0
31/01:30pm 16.5 14.8 7.4 55 4.5 SSE 6 13 3 7 1019.2 1019.2 0.0
31/01:00pm 16.5 14.3 8.0 57 4.3 SE 9 19 5 10 1019.2 1019.2 0.0
31/12:30pm 16.6 13.9 8.8 60 4.0 SSE 13 20 7 11 1019.3 1019.3 0.0
31/12:00pm 15.8 13.1 8.8 63 3.6 S 13 19 7 10 1019.9 1019.9 0.0
31/11:30am 15.7 12.9 8.4 62 3.7 SSE 13 20 7 11 1020.1 1020.1 0.0
31/11:00am 15.8 12.8 7.6 58 4.1 S 13 19 7 10 1020.0 1020.0 0.0
31/10:30am 15.7 14.2 9.1 65 3.4 SSE 7 13 4 7 1020.1 1020.1 0.0
31/10:00am 14.8 14.8 11.0 78 2.0 SSE 2 7 1 4 1020.3 1020.3 0.0
31/09:30am 13.7 13.8 10.3 80 1.8 CALM 0 0 0 0 1020.1 1020.1 0.0
31/09:00am 13.0 13.4 11.2 89 0.9 CALM 0 0 0 0 1020.1 1020.1 2.0
31/08:30am 12.5 13.1 11.9 96 0.3 CALM 0 0 0 0 1019.8 1019.8 2.0
31/08:00am 11.9 12.4 11.6 98 0.2 CALM 0 0 0 0 1019.6 1019.6 2.0
31/07:30am 11.5 11.9 11.2 98 0.2 CALM 0 0 0 0 1018.9 1018.9 2.0
31/07:00am 10.9 11.1 10.6 98 0.2 CALM 0 0 0 0 1018.7 1018.7 2.0
31/06:30am 10.5 10.6 10.0 97 0.3 CALM 0 0 0 0 1018.5 1018.5 2.0
31/06:00am 10.9 11.1 10.4 97 0.3 CALM 0 0 0 0 1018.0 1018.0 2.0
31/05:30am 11.5 11.7 10.7 95 0.4 CALM 0 0 0 0 1017.9 1017.9 2.0
31/05:00am 12.2 11.6 11.6 96 0.3 SSE 6 9 3 5 1018.2 1018.2 2.0
31/04:30am 12.3 11.5 11.7 96 0.3 SSE 7 9 4 5 1017.9 1017.9 2.0
31/04:00am 12.4 12.6 11.8 96 0.3 SSE 2 6 1 3 1017.4 1017.4 1.2
31/03:30am 12.5 12.3 11.7 95 0.4 SE 4 7 2 4 1017.4 1017.4 1.2
31/03:00am 12.5 13.0 11.7 95 0.4 CALM 0 6 0 3 1017.6 1017.6 1.2
31/02:30am 12.8 13.4 11.9 94 0.5 CALM 0 0 0 0 1017.7 1017.7 0.2
31/02:00am 12.8 12.5 11.4 91 0.7 SE 4 7 2 4 1017.6 1017.6 0.2
31/01:30am 12.7 13.0 10.9 89 0.9 CALM 0 6 0 3 1017.6 1017.6 0.0
31/01:00am 13.0 13.4 11.1 88 1.0 CALM 0 0 0 0 1017.6 1017.6 0.0
31/12:30am 13.2 13.6 11.1 87 1.1 CALM 0 0 0 0 1017.6 1017.6 0.0
31/12:00am 12.9 13.2 11.0 88 1.0 CALM 0 0 0 0 1017.6 1017.6 0.0
 
Date/Time
WST
Temp
°C
App
Temp
°C
Dew
Point
Rel
Hum
%
Delta-T
°C
Wind Press
QNH
hPa
Press
MSL
hPa
Rain
since 9 am
mm
Dir
 
Spd
km/h
Gust
km/h
Spd
kts
Gust
kts
30/11:30pm 13.0 13.2 10.7 86 1.2 CALM 0 0 0 0 1017.7 1017.7 0.0
30/11:00pm 13.2 13.3 10.2 82 1.5 CALM 0 0 0 0 1017.7 1017.7 0.0
30/10:30pm 13.9 12.7 10.3 79 1.9 SE 7 13 4 7 1017.9 1017.9 0.0
30/10:00pm 14.0 13.0 10.2 78 2.0 SSW 6 15 3 8 1018.2 1018.2 0.0
30/09:30pm 13.8 14.0 10.4 80 1.8 CALM 0 6 0 3 1018.0 1018.0 0.0
30/09:00pm 14.6 14.2 9.8 73 2.5 WSW 2 7 1 4 1018.0 1018.0 0.0
30/08:30pm 15.6 14.0 8.8 64 3.5 WSW 7 11 4 6 1018.2 1018.2 0.0
30/08:00pm 15.8 14.3 9.2 65 3.4 SW 7 11 4 6 1018.0 1018.0 0.0
30/07:30pm 15.8 14.3 9.0 64 3.5 SW 7 11 4 6 1017.8 1017.8 0.0
30/07:00pm 16.0 14.5 9.2 64 3.5 SW 7 11 4 6 1017.6 1017.6 0.0
30/06:30pm 16.2 14.3 9.2 63 3.6 SW 9 13 5 7 1017.3 1017.3 0.0
30/06:00pm 16.3 14.4 9.0 62 3.8 SW 9 15 5 8 1016.9 1016.9 0.0
30/05:30pm 16.8 14.7 9.7 63 3.7 SSW 11 20 6 11 1016.8 1016.8 0.0
30/05:00pm 16.9 15.1 10.7 67 3.3 SW 11 17 6 9 1016.6 1016.6 0.0
30/04:30pm 17.1 14.8 10.5 65 3.5 SW 13 19 7 10 1016.6 1016.6 0.0
30/04:00pm 17.7 16.1 11.5 67 3.4 SW 11 22 6 12 1016.3 1016.3 0.0
30/03:30pm 17.5 15.2 10.4 63 3.8 SW 13 20 7 11 1015.9 1015.9 0.0
30/03:00pm 18.2 16.4 12.2 68 3.3 SSW 13 20 7 11 1015.7 1015.7 0.0

Other Formats:

Comma delimited format used in spreadsheet applications
http://www.bom.gov.au/fwo/IDW60801/IDW60801.94608.axf

JavaScript Object Notation format (JSON) in row-major order
http://www.bom.gov.au/fwo/IDW60801/IDW60801.94608.json